Collegedale, Tennessee
Current Conditions -  °F | °C
As of 1:53 PM on Friday 24 Oct 2014 (Local Time) from KCHA Reporting Station
Few Clouds Few Clouds  
Wind Chill: 67°   Ceiling: Unl
Heat Index: 67°   Visibility: 10mi
Dew Point: 44°   Wind: 6mph
Humidity: 44%   Direction: NA
Pressure: 30.07"   Gusts: NA
Location:  35.06°N, 85.07°W
Report Text: KCHA 241753Z VRB05KT 10SM FEW150 19/07 A3007 RMK AO2 SLP180 T01940067 10194 20106 58019
Loading
Personal Weather Stations






























Interactive Weather Map
Tropical Storm Tracking
New forecast layout! Learn more

10-Day Weather Forecast

Advertisements
Track Severe Weather on mobile